Time;durP1;ratioP1;P1;durP2;ratioP2;P2;SDS_P1;SDS_P2;PMS_P1;PMS_P2;Temp;Humidity;BMP_temperature;BMP_pressure;BME280_temperature;BME280_humidity;BME280_pressure;Samples;Min_cycle;Max_cycle;Signal;HPM_P1;HPM_P2
2022/07/17 00:01:31;;;;;;;7.45;2.60;;;;;;;24.05;47.14;95626.44;5058843;28;20040;-84
2022/07/17 00:03:57;;;;;;;9.50;2.78;;;;;;;23.91;46.92;95591.66;5059084;28;20093;-86
2022/07/17 00:06:22;;;;;;;12.52;3.30;;;;;;;22.24;46.67;95335.53;5058149;28;20052;-85
2022/07/17 00:08:47;;;;;;;4.10;2.38;;;;;;;23.98;46.77;95580.19;5058713;28;20036;-84
2022/07/17 00:11:13;;;;;;;5.97;3.08;;;;;;;24.07;46.59;95603.28;5058799;28;20505;-84
2022/07/17 00:13:38;;;;;;;3.95;2.50;;;;;;;24.18;47.19;95620.59;5056903;28;20063;-85
2022/07/17 00:16:05;;;;;;;3.75;2.80;;;;;;;23.82;46.73;95536.84;5057951;28;20521;-86
2022/07/17 00:18:30;;;;;;;5.97;2.53;;;;;;;24.20;46.76;95633.81;5057772;28;20040;-85
2022/07/17 00:20:56;;;;;;;10.25;3.72;;;;;;;23.25;46.52;95448.78;5059743;28;20487;-84
2022/07/17 00:23:21;;;;;;;5.45;2.97;;;;;;;24.38;46.33;95602.53;5057659;28;20414;-85
2022/07/17 00:25:46;;;;;;;6.88;2.85;;;;;;;23.78;45.99;95496.16;5059936;28;20045;-86
2022/07/17 00:28:12;;;;;;;5.75;2.72;;;;;;;24.03;46.75;95599.69;5058562;28;20044;-86
2022/07/17 00:30:38;;;;;;;5.30;2.30;;;;;;;24.34;46.99;95644.22;5058348;28;20036;-85
2022/07/17 00:33:04;;;;;;;4.93;2.40;;;;;;;24.41;46.58;95639.00;5058369;28;20556;-85
2022/07/17 00:35:30;;;;;;;4.20;2.65;;;;;;;23.00;48.13;95541.97;5058206;28;20040;-84
2022/07/17 00:37:56;;;;;;;8.70;3.10;;;;;;;22.63;48.03;95474.47;5057797;28;20120;-83
2022/07/17 00:40:23;;;;;;;3.97;2.65;;;;;;;22.95;49.03;95612.56;5060648;28;20062;-83
2022/07/17 00:42:49;;;;;;;6.07;2.67;;;;;;;22.60;49.80;95587.88;5059446;28;20035;-85
2022/07/17 00:45:15;;;;;;;4.43;2.60;;;;;;;22.08;49.96;95499.44;5058380;28;20048;-84
2022/07/17 00:48:02;;;;;;;5.05;3.10;;;;;;;23.25;49.26;95654.41;5056917;28;20098;-86
2022/07/17 00:50:31;;;;;;;3.92;2.50;;;;;;;22.25;49.12;95495.72;5058903;28;20036;-86
2022/07/17 00:52:57;;;;;;;10.50;2.97;;;;;;;22.76;48.98;95559.06;5057534;28;20428;-86
2022/07/17 00:55:24;;;;;;;9.88;2.70;;;;;;;23.02;48.61;95597.31;5057636;28;20032;-85
2022/07/17 00:57:51;;;;;;;4.15;2.80;;;;;;;23.05;48.53;95595.81;5058503;28;20043;-84
2022/07/17 01:00:18;;;;;;;5.63;2.50;;;;;;;23.20;48.48;95614.03;5058367;28;20380;-85
2022/07/17 01:02:48;;;;;;;9.75;3.25;;;;;;;23.30;48.29;95647.97;5060306;28;20072;-84
2022/07/17 01:05:15;;;;;;;7.47;2.67;;;;;;;22.57;48.51;95521.81;5059338;28;20037;-86
2022/07/17 01:07:41;;;;;;;2.95;2.53;;;;;;;23.59;48.26;95652.28;5059906;28;20044;-84
2022/07/17 01:10:07;;;;;;;9.93;2.60;;;;;;;23.49;47.78;95631.94;5058976;28;20036;-86
2022/07/17 01:12:33;;;;;;;6.90;2.78;;;;;;;23.64;47.55;95638.53;5058136;28;20515;-85
2022/07/17 01:14:59;;;;;;;4.75;2.53;;;;;;;23.61;46.96;95612.91;5057811;28;20039;-85
2022/07/17 01:17:25;;;;;;;6.53;2.58;;;;;;;23.75;47.19;95647.72;5058543;28;20041;-87
2022/07/17 01:19:50;;;;;;;7.85;2.90;;;;;;;23.48;46.91;95597.88;5062191;28;20092;-86
2022/07/17 01:22:16;;;;;;;6.63;2.78;;;;;;;22.33;46.87;95392.16;5061379;28;20094;-85
2022/07/17 01:24:41;;;;;;;6.93;3.00;;;;;;;23.97;46.64;95643.63;5061394;28;20040;-86
2022/07/17 01:27:07;;;;;;;11.02;2.90;;;;;;;23.93;46.33;95637.34;5062573;28;20039;-85
2022/07/17 01:29:36;;;;;;;4.68;2.40;;;;;;;23.71;46.74;95627.88;5062672;28;20515;-85
2022/07/17 01:32:02;;;;;;;4.70;2.55;;;;;;;23.76;46.78;95624.91;5061824;28;20139;-85
2022/07/17 01:34:27;;;;;;;6.20;2.67;;;;;;;23.24;46.77;95538.41;5061833;28;20190;-86
2022/07/17 01:36:53;;;;;;;7.00;2.30;;;;;;;23.81;45.98;95605.69;5061914;28;20056;-85
2022/07/17 01:39:52;;;;;;;6.47;2.60;;;;;;;22.97;46.19;95485.84;5061670;28;20042;-86
2022/07/17 01:42:04;;;;;;;5.53;2.17;;;;;;;24.14;46.06;95665.78;5063040;28;20039;-86
2022/07/17 01:44:29;;;;;;;4.68;3.10;;;;;;;23.91;46.12;95626.88;5061256;28;20063;-86
2022/07/17 01:46:55;;;;;;;5.18;2.67;;;;;;;21.89;46.44;95350.72;5061859;28;20065;-86
2022/07/17 01:49:20;;;;;;;8.43;2.85;;;;;;;23.87;46.90;95665.84;5061896;28;20040;-86
2022/07/17 01:51:46;;;;;;;8.07;2.20;;;;;;;22.78;46.80;95518.97;5063869;28;20132;-86
2022/07/17 01:54:11;;;;;;;8.43;2.63;;;;;;;23.90;46.50;95654.28;5062552;28;20035;-87
2022/07/17 01:56:37;;;;;;;4.97;2.78;;;;;;;23.06;46.33;95538.69;5061343;28;20042;-87
2022/07/17 01:59:03;;;;;;;8.18;2.80;;;;;;;22.49;46.55;95455.16;5061304;28;20118;-86
2022/07/17 02:01:28;;;;;;;8.75;2.40;;;;;;;23.64;46.24;95628.47;5060387;28;20425;-87
2022/07/17 02:03:54;;;;;;;6.20;2.47;;;;;;;22.27;46.65;95442.16;5063445;28;20047;-87
2022/07/17 02:06:19;;;;;;;5.93;2.72;;;;;;;22.24;46.63;95449.00;5062752;28;20044;-87
2022/07/17 02:08:45;;;;;;;8.52;3.13;;;;;;;22.11;46.94;95425.84;5061701;28;20047;-87
2022/07/17 02:11:10;;;;;;;3.63;2.65;;;;;;;23.04;46.83;95564.50;5061975;28;20585;-87
2022/07/17 02:13:36;;;;;;;6.03;2.85;;;;;;;22.13;46.71;95417.38;5062404;28;20075;-86
2022/07/17 02:16:01;;;;;;;8.50;2.72;;;;;;;23.42;46.48;95610.81;5062294;28;20120;-87
2022/07/17 02:18:27;;;;;;;7.97;2.50;;;;;;;23.51;46.23;95656.72;5061876;28;20522;-86
2022/07/17 02:20:52;;;;;;;4.32;2.30;;;;;;;23.75;46.24;95666.66;5061469;28;20043;-87
2022/07/17 02:23:18;;;;;;;7.97;2.83;;;;;;;22.87;46.64;95579.09;5061518;28;20479;-86
2022/07/17 02:25:43;;;;;;;5.38;2.85;;;;;;;23.16;46.48;95624.00;5061603;28;20048;-86
2022/07/17 02:28:09;;;;;;;5.25;2.97;;;;;;;22.90;46.17;95545.94;5061862;28;20123;-86
2022/07/17 02:30:34;;;;;;;3.75;2.80;;;;;;;21.66;47.31;95415.19;5060367;28;20098;-86
2022/07/17 02:33:00;;;;;;;6.10;2.88;;;;;;;21.15;47.49;95336.44;5062809;28;20037;-87
2022/07/17 02:35:25;;;;;;;5.78;2.80;;;;;;;22.55;46.98;95544.88;5061216;28;20045;-86
2022/07/17 02:37:51;;;;;;;6.78;3.15;;;;;;;21.73;46.85;95415.41;5061697;28;20035;-87
2022/07/17 02:40:16;;;;;;;7.05;2.70;;;;;;;23.02;46.66;95605.44;5062496;28;20047;-87
2022/07/17 02:42:42;;;;;;;12.23;2.97;;;;;;;23.34;46.35;95617.19;5065161;28;20498;-87
2022/07/17 02:45:08;;;;;;;6.95;2.67;;;;;;;21.94;46.70;95402.56;5065478;28;20052;-87
2022/07/17 02:47:34;;;;;;;5.22;2.35;;;;;;;23.51;46.27;95672.94;5065602;28;20040;-87
2022/07/17 02:50:03;;;;;;;6.28;2.50;;;;;;;23.69;45.68;95679.66;5062777;28;20028;-86
2022/07/17 02:52:28;;;;;;;10.68;2.80;;;;;;;22.19;45.67;95451.94;5061660;28;20036;-87
2022/07/17 02:54:54;;;;;;;4.88;2.60;;;;;;;23.42;46.15;95683.13;5061685;28;20033;-87
2022/07/17 02:57:20;;;;;;;5.63;3.08;;;;;;;22.47;47.50;95583.63;5060920;28;20047;-87
2022/07/17 02:59:46;;;;;;;3.88;2.72;;;;;;;20.86;47.66;95325.06;5061038;28;20476;-87
2022/07/17 03:02:12;;;;;;;9.23;3.05;;;;;;;22.88;47.34;95623.16;5062620;28;20425;-87
2022/07/17 03:04:37;;;;;;;5.47;2.80;;;;;;;23.32;47.40;95692.50;5061039;28;20043;-87
2022/07/17 03:07:03;;;;;;;5.82;2.67;;;;;;;22.76;47.40;95599.63;5060703;28;20028;-87
2022/07/17 03:09:28;;;;;;;8.05;3.08;;;;;;;23.30;47.42;95696.66;5059385;28;20051;-87
2022/07/17 03:11:53;;;;;;;8.95;2.85;;;;;;;21.25;46.86;95366.81;5060617;28;20039;-87
2022/07/17 03:14:19;;;;;;;6.85;2.72;;;;;;;22.81;46.59;95595.91;5061992;28;20519;-87
2022/07/17 03:16:44;;;;;;;9.20;3.72;;;;;;;23.57;46.46;95690.56;5060570;28;20082;-87
2022/07/17 03:19:10;;;;;;;4.32;2.72;;;;;;;22.92;46.42;95584.25;5060172;28;20036;-87
2022/07/17 03:21:35;;;;;;;9.25;3.10;;;;;;;23.35;46.67;95697.22;5060181;28;20163;-87
2022/07/17 03:24:01;;;;;;;6.88;3.25;;;;;;;22.80;46.79;95632.97;5060798;28;20039;-87
2022/07/17 03:26:26;;;;;;;6.20;3.20;;;;;;;22.42;47.67;95646.81;5059527;28;20037;-87
2022/07/17 03:28:52;;;;;;;8.38;2.97;;;;;;;22.33;47.38;95602.91;5059944;28;20032;-87
2022/07/17 03:31:17;;;;;;;8.43;3.08;;;;;;;22.42;47.02;95571.16;5062259;28;20075;-87
2022/07/17 03:33:43;;;;;;;6.30;2.88;;;;;;;21.61;46.96;95436.19;5060367;28;20037;-87
2022/07/17 03:36:08;;;;;;;6.47;3.13;;;;;;;23.34;46.53;95678.63;5059734;28;20060;-86
2022/07/17 03:38:34;;;;;;;7.25;3.15;;;;;;;22.23;47.13;95543.91;5060080;28;20040;-87
2022/07/17 03:40:59;;;;;;;6.03;2.80;;;;;;;22.08;46.46;95494.03;5058601;28;20407;-87
2022/07/17 03:43:25;;;;;;;5.90;2.80;;;;;;;22.55;47.45;95637.56;5059076;28;20039;-87
2022/07/17 03:45:50;;;;;;;6.15;2.88;;;;;;;22.83;47.08;95655.81;5059311;28;20047;-86
2022/07/17 03:48:16;;;;;;;5.43;2.78;;;;;;;23.37;46.42;95732.06;5058784;28;20048;-87
2022/07/17 03:50:41;;;;;;;9.30;3.08;;;;;;;22.92;46.48;95635.66;5059119;28;20040;-87
2022/07/17 03:53:07;;;;;;;8.98;3.50;;;;;;;22.72;46.23;95617.63;5060868;28;20041;-87
2022/07/17 03:55:32;;;;;;;9.18;3.40;;;;;;;22.76;46.18;95609.63;5059425;28;20152;-87
2022/07/17 03:57:58;;;;;;;10.55;3.67;;;;;;;23.51;46.23;95727.09;5059235;28;20502;-87
2022/07/17 04:00:24;;;;;;;8.80;3.05;;;;;;;22.56;46.60;95579.69;5059685;28;20044;-87
2022/07/17 04:02:49;;;;;;;10.38;3.03;;;;;;;22.87;47.01;95741.38;5059105;28;20106;-86
2022/07/17 04:05:14;;;;;;;5.55;2.92;;;;;;;20.34;46.95;95317.53;5059644;28;20537;-87
2022/07/17 04:07:42;;;;;;;11.70;3.25;;;;;;;23.18;47.29;95758.94;5059226;28;20044;-87
2022/07/17 04:10:12;;;;;;;6.40;3.08;;;;;;;21.79;46.83;95564.44;5058761;28;20617;-87
2022/07/17 04:12:38;;;;;;;6.72;3.20;;;;;;;22.28;47.22;95636.31;5059593;28;20040;-86
2022/07/17 04:15:05;;;;;;;7.75;3.33;;;;;;;22.72;47.75;95763.63;5059144;28;20036;-85
2022/07/17 04:17:31;;;;;;;4.82;2.78;;;;;;;22.23;48.06;95719.50;5060589;28;20567;-85
2022/07/17 04:19:57;;;;;;;7.70;3.13;;;;;;;21.89;48.90;95704.41;5060283;28;20029;-87
2022/07/17 04:22:23;;;;;;;6.25;3.17;;;;;;;21.91;49.32;95705.63;5059961;28;20063;-87
2022/07/17 04:24:49;;;;;;;8.00;3.53;;;;;;;22.16;49.13;95770.56;5058465;28;20078;-86
2022/07/17 04:27:15;;;;;;;7.93;4.03;;;;;;;21.69;49.40;95724.91;5059764;28;20642;-85
2022/07/17 04:29:41;;;;;;;4.78;2.83;;;;;;;21.04;49.58;95617.66;5058883;28;20139;-86
2022/07/17 04:32:07;;;;;;;12.65;3.35;;;;;;;21.88;48.90;95676.63;5058717;28;20117;-87
2022/07/17 04:34:33;;;;;;;5.15;3.40;;;;;;;22.19;48.88;95773.41;5059919;28;20052;-86
2022/07/17 04:36:59;;;;;;;4.10;2.85;;;;;;;21.59;48.82;95684.03;5059494;28;20425;-85
2022/07/17 04:39:24;;;;;;;6.40;3.00;;;;;;;22.15;47.76;95733.88;5059037;28;20127;-87
2022/07/17 04:41:50;;;;;;;9.85;3.55;;;;;;;22.01;47.74;95717.97;5062453;28;20036;-85
2022/07/17 04:44:16;;;;;;;8.68;3.25;;;;;;;21.77;48.52;95755.66;5059936;28;20064;-86
2022/07/17 04:46:41;;;;;;;4.93;2.90;;;;;;;20.05;48.72;95501.47;5061258;28;20040;-87
2022/07/17 04:49:07;;;;;;;11.55;3.40;;;;;;;21.71;48.37;95721.88;5059148;28;20102;-87
2022/07/17 04:51:33;;;;;;;8.82;3.10;;;;;;;20.77;47.65;95546.94;5058247;28;20040;-85
2022/07/17 04:53:58;;;;;;;6.22;3.13;;;;;;;22.54;47.74;95800.06;5060194;28;20048;-87
2022/07/17 04:56:24;;;;;;;7.00;2.78;;;;;;;22.45;47.22;95748.81;5060846;28;20033;-85
2022/07/17 04:58:49;;;;;;;13.35;2.85;;;;;;;22.80;47.01;95787.09;5058314;28;20143;-87
2022/07/17 05:01:15;;;;;;;8.75;2.95;;;;;;;22.88;46.64;95770.00;5058511;28;20043;-86
2022/07/17 05:03:40;;;;;;;8.93;3.40;;;;;;;22.64;45.86;95719.34;5058336;28;20036;-86
2022/07/17 05:06:06;;;;;;;5.82;3.47;;;;;;;22.75;44.55;95740.53;5060111;28;20055;-86
2022/07/17 05:08:33;;;;;;;8.45;2.90;;;;;;;22.73;42.54;95713.03;5058676;28;20032;-86
2022/07/17 05:10:58;;;;;;;6.53;2.85;;;;;;;22.59;42.75;95686.31;5058324;28;20032;-86
2022/07/17 05:13:25;;;;;;;7.35;2.72;;;;;;;23.32;43.16;95805.38;5060282;28;20044;-85
2022/07/17 05:15:50;;;;;;;12.30;3.03;;;;;;;23.01;42.72;95755.34;5059954;28;20032;-87
2022/07/17 05:18:16;;;;;;;8.70;3.50;;;;;;;22.58;40.38;95655.03;5059829;28;20050;-86
2022/07/17 05:20:41;;;;;;;7.63;2.78;;;;;;;21.90;40.88;95576.34;5060071;28;20089;-87
2022/07/17 05:23:06;;;;;;;5.47;2.83;;;;;;;22.59;40.67;95681.72;5057624;28;20102;-87
2022/07/17 05:25:32;;;;;;;8.70;2.92;;;;;;;23.54;39.77;95801.44;5059565;28;20037;-86
2022/07/17 05:27:58;;;;;;;5.28;3.70;;;;;;;23.27;40.21;95765.00;5057837;28;20064;-87
2022/07/17 05:30:23;;;;;;;10.00;3.45;;;;;;;23.65;39.67;95784.38;5059802;28;20115;-88
2022/07/17 05:32:49;;;;;;;5.85;2.75;;;;;;;23.61;39.30;95805.16;5059075;28;20759;-87
2022/07/17 05:35:14;;;;;;;6.32;3.08;;;;;;;22.07;38.89;95548.41;5058450;28;20043;-87
2022/07/17 05:37:40;;;;;;;12.90;3.08;;;;;;;22.04;39.05;95557.97;5058237;28;20103;-87
2022/07/17 05:40:06;;;;;;;9.40;3.22;;;;;;;23.10;38.68;95668.66;5059900;28;20028;-87
2022/07/17 05:42:31;;;;;;;4.70;2.67;;;;;;;23.88;38.02;95808.25;5058273;28;20403;-86
2022/07/17 05:44:58;;;;;;;5.07;2.78;;;;;;;23.75;37.28;95774.97;5059303;28;20048;-87
2022/07/17 05:47:24;;;;;;;5.75;3.03;;;;;;;23.31;37.86;95693.63;5057335;28;20036;-86
2022/07/17 05:49:50;;;;;;;7.72;2.70;;;;;;;23.53;37.09;95730.25;5058320;28;20110;-86
2022/07/17 05:52:15;;;;;;;7.10;2.70;;;;;;;24.00;36.23;95800.09;5058068;28;20021;-86
2022/07/17 05:54:41;;;;;;;4.43;2.80;;;;;;;23.99;35.91;95779.53;5058003;28;20035;-86
2022/07/17 05:57:06;;;;;;;3.30;2.47;;;;;;;24.19;35.80;95809.16;5057567;28;20032;-86
2022/07/17 05:59:31;;;;;;;7.55;2.72;;;;;;;24.12;35.98;95810.88;5058081;28;20040;-86
2022/07/17 06:01:57;;;;;;;4.90;2.63;;;;;;;24.19;35.66;95797.50;5058051;28;20462;-88
2022/07/17 06:04:22;;;;;;;10.00;3.00;;;;;;;23.97;35.87;95741.16;5057977;28;20032;-87
2022/07/17 06:06:48;;;;;;;6.82;2.42;;;;;;;24.42;36.14;95800.50;5062017;28;20033;-88
2022/07/17 06:09:13;;;;;;;6.43;2.70;;;;;;;24.53;36.10;95818.63;5061319;28;20040;-87
2022/07/17 06:11:39;;;;;;;6.00;2.15;;;;;;;24.30;35.83;95759.91;5061830;28;20036;-88
2022/07/17 06:14:04;;;;;;;7.07;2.65;;;;;;;23.78;36.71;95714.72;5061889;28;20036;-86
2022/07/17 06:16:30;;;;;;;4.95;2.97;;;;;;;23.85;36.85;95720.34;5061497;28;20600;-85
2022/07/17 06:18:55;;;;;;;9.75;3.35;;;;;;;23.86;37.09;95738.16;5062591;28;20036;-87
2022/07/17 06:21:20;;;;;;;6.88;3.20;;;;;;;24.40;37.37;95809.00;5061615;28;20035;-87
2022/07/17 06:23:46;;;;;;;7.68;3.38;;;;;;;23.15;37.69;95643.25;5061147;28;20575;-87
2022/07/17 06:26:11;;;;;;;4.05;2.72;;;;;;;23.94;37.51;95748.06;5060878;28;20462;-88
2022/07/17 06:28:37;;;;;;;4.63;2.85;;;;;;;24.66;37.44;95810.44;5062477;28;20059;-88
2022/07/17 06:31:02;;;;;;;10.73;2.92;;;;;;;24.78;37.61;95818.50;5062443;28;20213;-88
2022/07/17 06:33:28;;;;;;;5.50;2.72;;;;;;;24.23;37.74;95746.97;5063642;28;20584;-87
2022/07/17 06:35:53;;;;;;;4.72;2.85;;;;;;;24.38;37.28;95795.00;5060823;28;20067;-87
2022/07/17 06:38:19;;;;;;;7.03;2.80;;;;;;;23.84;37.32;95716.84;5061243;28;20063;-86
2022/07/17 06:40:44;;;;;;;7.05;3.28;;;;;;;22.83;37.25;95564.66;5061105;28;20040;-88
2022/07/17 06:43:10;;;;;;;7.78;3.03;;;;;;;24.68;37.42;95821.72;5062230;28;20040;-87
2022/07/17 06:45:36;;;;;;;10.75;3.10;;;;;;;24.66;37.75;95810.44;5060562;28;20533;-86
2022/07/17 06:48:01;;;;;;;7.60;3.08;;;;;;;24.69;38.00;95820.59;5063056;28;20066;-86
2022/07/17 06:50:27;;;;;;;6.68;2.85;;;;;;;24.46;38.29;95829.28;5060496;28;20505;-86
2022/07/17 06:52:53;;;;;;;6.15;3.00;;;;;;;23.74;38.13;95709.19;5060831;28;20642;-86
2022/07/17 06:55:18;;;;;;;5.07;2.80;;;;;;;24.05;38.11;95768.09;5060294;28;20037;-86
2022/07/17 06:57:44;;;;;;;8.43;2.67;;;;;;;24.44;38.55;95828.06;5060213;28;20043;-86
2022/07/17 07:00:10;;;;;;;8.45;3.10;;;;;;;24.56;38.40;95825.31;5061696;28;20136;-87
2022/07/17 07:02:36;;;;;;;6.78;3.40;;;;;;;24.58;38.57;95809.44;5060145;28;20497;-87
2022/07/17 07:05:02;;;;;;;7.20;2.80;;;;;;;22.74;38.19;95536.19;5062125;28;20037;-88
2022/07/17 07:07:28;;;;;;;4.63;3.00;;;;;;;23.85;38.31;95663.47;5062584;28;20048;-87
2022/07/17 07:09:53;;;;;;;8.32;3.22;;;;;;;23.70;39.18;95643.34;5060486;28;20517;-87
2022/07/17 07:12:19;;;;;;;6.50;3.38;;;;;;;24.88;38.21;95829.63;5059907;28;20040;-85
2022/07/17 07:14:44;;;;;;;9.73;3.55;;;;;;;24.40;38.72;95778.38;5059411;28;20085;-86
2022/07/17 07:17:09;;;;;;;7.13;3.25;;;;;;;24.51;38.57;95803.84;5062285;28;20518;-87
2022/07/17 07:19:35;;;;;;;7.15;3.40;;;;;;;24.30;38.54;95789.72;5059277;28;20651;-86
2022/07/17 07:22:00;;;;;;;5.38;3.40;;;;;;;24.70;37.99;95831.09;5061579;28;20055;-86
2022/07/17 07:24:26;;;;;;;8.88;3.17;;;;;;;24.14;38.49;95724.59;5059732;28;20577;-87
2022/07/17 07:26:51;;;;;;;5.13;2.97;;;;;;;24.34;38.79;95763.47;5060319;28;20037;-87
2022/07/17 07:29:17;;;;;;;7.72;3.30;;;;;;;24.28;38.49;95706.03;5060569;28;20036;-87
2022/07/17 07:31:42;;;;;;;6.18;3.20;;;;;;;24.41;37.53;95733.88;5061405;28;20036;-86
2022/07/17 07:34:08;;;;;;;16.92;3.75;;;;;;;24.86;38.04;95806.69;5061319;28;20468;-86
2022/07/17 07:36:33;;;;;;;4.88;3.10;;;;;;;24.88;37.04;95807.91;5059021;28;20037;-87
2022/07/17 07:38:59;;;;;;;12.00;3.85;;;;;;;24.20;37.77;95725.97;5059996;28;20036;-85
2022/07/17 07:41:24;;;;;;;6.57;3.30;;;;;;;24.85;37.99;95834.97;5059374;28;20040;-85
2022/07/17 07:43:50;;;;;;;8.63;2.83;;;;;;;23.40;37.95;95636.66;5058596;28;20173;-86
2022/07/17 07:46:15;;;;;;;8.35;3.13;;;;;;;23.52;38.70;95633.13;5059332;28;20044;-85
2022/07/17 07:48:41;;;;;;;3.30;2.28;;;;;;;24.98;37.34;95836.47;5059993;28;20046;-87
2022/07/17 07:51:06;;;;;;;7.60;2.88;;;;;;;24.87;37.85;95836.16;5060608;28;20121;-87
2022/07/17 07:53:32;;;;;;;14.50;3.30;;;;;;;23.11;38.04;95536.88;5060259;28;20036;-86
2022/07/17 07:55:57;;;;;;;6.35;3.20;;;;;;;23.30;37.77;95612.78;5059981;28;20036;-85
2022/07/17 07:58:23;;;;;;;10.13;3.30;;;;;;;24.76;38.34;95820.78;5060485;28;20044;-87
2022/07/17 08:00:48;;;;;;;7.05;3.10;;;;;;;24.12;37.52;95724.16;5059472;28;20032;-85
2022/07/17 08:03:14;;;;;;;7.15;3.40;;;;;;;24.31;37.71;95766.91;5058674;28;20170;-86
2022/07/17 08:05:39;;;;;;;7.22;3.28;;;;;;;24.18;37.75;95709.25;5058433;28;20047;-87
2022/07/17 08:08:05;;;;;;;10.30;3.35;;;;;;;23.34;38.00;95578.50;5060941;28;20113;-86
2022/07/17 08:10:31;;;;;;;4.25;2.70;;;;;;;24.92;37.45;95830.53;5058153;28;20040;-86
2022/07/17 08:12:56;;;;;;;3.90;2.78;;;;;;;24.22;37.31;95724.47;5059413;28;20040;-87
2022/07/17 08:15:23;;;;;;;9.25;3.08;;;;;;;24.58;36.91;95764.13;5059793;28;20071;-86
2022/07/17 08:17:52;;;;;;;11.48;3.40;;;;;;;24.40;36.86;95708.69;5058788;28;20044;-86
2022/07/17 08:20:18;;;;;;;10.93;3.42;;;;;;;25.09;37.10;95810.41;5059184;28;20040;-86
2022/07/17 08:22:45;;;;;;;4.85;3.30;;;;;;;23.67;36.54;95587.16;5058859;28;20123;-87
2022/07/17 08:25:11;;;;;;;6.35;3.35;;;;;;;25.35;36.79;95816.06;5058416;28;20036;-87
2022/07/17 08:27:38;;;;;;;13.13;4.90;;;;;;;25.19;36.59;95831.56;5059134;28;20664;-84
2022/07/17 08:30:05;;;;;;;5.75;3.22;;;;;;;24.70;36.90;95755.16;5058354;28;20074;-86
2022/07/17 08:32:31;;;;;;;5.40;2.85;;;;;;;25.06;34.59;95785.88;5058814;28;20436;-86
2022/07/17 08:34:56;;;;;;;5.70;3.28;;;;;;;24.97;35.16;95742.66;5060072;28;20039;-84
2022/07/17 08:37:22;;;;;;;5.70;3.33;;;;;;;25.45;35.60;95800.38;5060431;28;20036;-87
2022/07/17 08:39:47;;;;;;;10.88;3.50;;;;;;;23.93;35.72;95631.94;5058600;28;20073;-86
2022/07/17 08:42:16;;;;;;;4.50;2.90;;;;;;;24.07;36.03;95618.75;5059143;28;20060;-86
2022/07/17 08:44:45;;;;;;;9.88;3.13;;;;;;;25.61;35.93;95828.34;5061546;28;20056;-87
2022/07/17 08:47:11;;;;;;;7.05;2.92;;;;;;;24.66;34.87;95700.03;5061744;28;20467;-86
2022/07/17 08:49:45;;;;;;;7.43;3.17;;;;;;;25.41;35.08;95805.72;5059412;28;20079;-86
2022/07/17 08:52:11;;;;;;;4.82;2.65;;;;;;;25.13;35.46;95784.13;5058226;28;20213;-87
2022/07/17 08:54:37;;;;;;;7.85;2.65;;;;;;;25.34;35.49;95830.00;5060283;28;20049;-87
2022/07/17 08:57:03;;;;;;;7.97;3.30;;;;;;;25.25;34.46;95769.69;5063934;28;20036;-86
2022/07/17 08:59:29;;;;;;;11.02;2.80;;;;;;;25.51;34.16;95788.91;5060002;28;20040;-87
2022/07/17 09:01:55;;;;;;;6.57;2.90;;;;;;;25.20;34.30;95705.59;5057627;28;20089;-87
2022/07/17 09:04:20;;;;;;;4.35;2.70;;;;;;;24.44;34.24;95586.78;5058545;28;20040;-88
2022/07/17 09:06:46;;;;;;;4.47;2.78;;;;;;;23.49;34.67;95425.41;5058088;28;20552;-86
2022/07/17 09:09:14;;;;;;;8.27;3.65;;;;;;;25.57;34.70;95765.75;5059515;28;20049;-87
2022/07/17 09:11:48;;;;;;;5.80;3.35;;;;;;;23.54;34.08;95425.16;5059935;28;20047;-86
2022/07/17 09:14:14;;;;;;;5.82;3.25;;;;;;;25.06;34.90;95634.72;5058451;28;20041;-85
2022/07/17 09:16:51;;;;;;;5.80;2.63;;;;;;;25.65;34.12;95724.03;5058715;28;20029;-86
2022/07/17 09:19:35;;;;;;;4.05;2.70;;;;;;;24.91;33.25;95600.28;5058344;28;20056;-87
2022/07/17 09:22:07;;;;;;;6.90;2.75;;;;;;;26.13;32.96;95828.69;5057954;28;20066;-86
2022/07/17 09:24:51;;;;;;;7.07;2.75;;;;;;;26.25;32.45;95810.66;5059314;28;20040;-86
2022/07/17 09:27:28;;;;;;;5.15;2.83;;;;;;;24.67;31.91;95548.94;5057977;28;20048;-86
2022/07/17 09:29:55;;;;;;;7.97;3.00;;;;;;;24.92;32.01;95578.22;5059682;28;20044;-87
2022/07/17 09:32:23;;;;;;;9.00;2.78;;;;;;;26.03;31.97;95736.84;5057355;28;20261;-85
2022/07/17 09:34:49;;;;;;;9.60;2.95;;;;;;;26.14;32.13;95750.66;5059179;28;20522;-86
2022/07/17 09:37:15;;;;;;;4.78;2.60;;;;;;;26.60;31.77;95805.16;5057645;28;20032;-87
2022/07/17 09:39:41;;;;;;;8.10;2.50;;;;;;;26.27;31.50;95762.19;5062987;28;20040;-87
2022/07/17 09:42:21;;;;;;;8.73;3.35;;;;;;;25.93;31.08;95731.22;5060760;28;20561;-85
2022/07/17 09:45:03;;;;;;;6.90;2.80;;;;;;;26.51;31.26;95808.09;5062572;28;20060;-85
2022/07/17 09:47:31;;;;;;;3.53;2.70;;;;;;;26.38;31.50;95783.00;5060559;28;20048;-86
2022/07/17 09:49:58;;;;;;;4.95;2.65;;;;;;;26.73;31.27;95817.44;5060428;28;20553;-86
2022/07/17 09:52:29;;;;;;;7.00;2.50;;;;;;;27.31;30.94;95812.63;5062965;28;20040;-87
2022/07/17 09:54:55;;;;;;;6.22;2.50;;;;;;;27.45;29.61;95752.94;5061848;28;20117;-86
2022/07/17 09:57:26;;;;;;;3.97;2.70;;;;;;;27.94;28.43;95722.06;5063153;28;20044;-86
2022/07/17 09:59:54;;;;;;;7.85;3.30;;;;;;;29.29;27.42;95758.88;5061986;28;20036;-87
2022/07/17 10:02:21;;;;;;;4.30;2.85;;;;;;;29.11;27.04;95683.06;5060479;28;20029;-86
2022/07/17 10:04:47;;;;;;;7.15;3.00;;;;;;;30.31;26.40;95813.38;5061348;28;20579;-86
2022/07/17 10:07:13;;;;;;;5.07;2.55;;;;;;;31.15;25.73;95823.03;5060716;28;20029;-86
2022/07/17 10:09:40;;;;;;;3.67;2.50;;;;;;;31.63;24.05;95814.44;5062908;28;20048;-87
2022/07/17 10:12:07;;;;;;;4.57;2.53;;;;;;;31.38;23.39;95666.44;5063121;28;20028;-88
2022/07/17 10:14:34;;;;;;;4.72;2.28;;;;;;;31.68;23.44;95630.31;5061563;28;20039;-87
2022/07/17 10:17:11;;;;;;;8.00;2.53;;;;;;;32.95;22.81;95794.38;5061854;28;20129;-87
2022/07/17 10:19:50;;;;;;;5.47;2.53;;;;;;;33.58;22.98;95814.28;5063003;28;20840;-86
2022/07/17 10:22:16;;;;;;;4.35;2.10;;;;;;;33.48;21.95;95800.66;5061310;28;20631;-87
2022/07/17 10:24:54;;;;;;;3.70;2.33;;;;;;;33.84;21.21;95705.59;5060642;28;20039;-87
2022/07/17 10:27:22;;;;;;;3.20;2.50;;;;;;;33.96;21.90;95724.31;5060653;28;20059;-86
2022/07/17 10:30:05;;;;;;;3.95;2.60;;;;;;;35.03;20.44;95798.06;5060625;28;20556;-86
2022/07/17 10:32:32;;;;;;;4.35;2.67;;;;;;;35.25;20.68;95797.78;5062148;28;20040;-85
2022/07/17 10:35:07;;;;;;;3.97;2.17;;;;;;;35.24;20.48;95791.47;5061451;28;20367;-86
2022/07/17 10:37:40;;;;;;;5.53;2.40;;;;;;;35.01;20.53;95799.69;5062607;28;20035;-85
2022/07/17 10:40:06;;;;;;;2.88;1.92;;;;;;;35.10;20.69;95784.16;5062590;28;20078;-88
2022/07/17 10:42:43;;;;;;;4.15;2.20;;;;;;;35.17;20.27;95786.81;5062248;28;20040;-87
2022/07/17 10:45:14;;;;;;;6.25;2.55;;;;;;;35.37;20.15;95792.44;5059652;28;20604;-86
2022/07/17 10:47:47;;;;;;;6.55;2.20;;;;;;;35.51;20.15;95786.66;5061494;28;20040;-84
2022/07/17 10:50:14;;;;;;;6.40;2.30;;;;;;;34.94;20.33;95748.19;5059025;28;20033;-86
2022/07/17 10:52:39;;;;;;;5.60;2.45;;;;;;;34.58;20.89;95703.84;5060205;28;20028;-86
2022/07/17 10:55:16;;;;;;;5.13;2.47;;;;;;;35.35;20.56;95769.22;5060034;28;20097;-87
2022/07/17 10:57:42;;;;;;;6.43;2.30;;;;;;;34.68;20.88;95732.44;5061004;28;20035;-86
2022/07/17 11:00:08;;;;;;;4.28;2.40;;;;;;;33.98;21.65;95719.19;5060656;28;20036;-87
2022/07/17 11:02:33;;;;;;;3.75;2.38;;;;;;;33.93;21.86;95762.88;5061396;28;20036;-86
2022/07/17 11:05:10;;;;;;;2.38;2.10;;;;;;;33.86;21.92;95763.75;5062018;28;20498;-87
2022/07/17 11:07:35;;;;;;;4.18;2.33;;;;;;;34.01;21.82;95747.84;5059452;28;20036;-87
2022/07/17 11:10:01;;;;;;;7.00;2.47;;;;;;;33.86;21.92;95707.94;5060714;28;20024;-86
2022/07/17 11:12:34;;;;;;;5.35;2.72;;;;;;;33.87;20.84;95657.25;5060082;28;20038;-86
2022/07/17 11:15:00;;;;;;;4.60;2.50;;;;;;;34.82;21.26;95746.81;5060013;28;20024;-88
2022/07/17 11:17:26;;;;;;;3.50;2.10;;;;;;;35.21;21.42;95753.69;5060325;28;20033;-87
2022/07/17 11:19:53;;;;;;;4.85;2.00;;;;;;;34.36;20.68;95626.28;5059219;28;20040;-88
2022/07/17 11:22:26;;;;;;;6.57;2.38;;;;;;;34.10;21.03;95541.75;5060136;28;20528;-88
2022/07/17 11:24:53;;;;;;;3.33;2.42;;;;;;;34.51;21.09;95700.41;5060301;28;20518;-87
2022/07/17 11:27:18;;;;;;;5.70;2.00;;;;;;;35.15;21.08;95750.63;5059878;28;20041;-88
2022/07/17 11:29:44;;;;;;;4.93;2.33;;;;;;;35.04;20.71;95722.44;5060137;28;20502;-88